Time;durP1;ratioP1;P1;durP2;ratioP2;P2;SDS_P1;SDS_P2;PMS_P1;PMS_P2;Temp;Humidity;BMP_temperature;BMP_pressure;BME280_temperature;BME280_humidity;BME280_pressure;Samples;Min_cycle;Max_cycle;Signal;HPM_P1;HPM_P2
2022/01/15 00:01:38;;;;;;;129.13;51.88;;;;;;;2.86;100.00;103242.81;5092498;28;20039;-79
2022/01/15 00:04:03;;;;;;;133.02;51.15;;;;;;;2.87;100.00;103244.56;5091798;28;20387;-78
2022/01/15 00:06:29;;;;;;;129.68;50.65;;;;;;;2.85;100.00;103235.91;5084471;28;20028;-79
2022/01/15 00:08:54;;;;;;;141.18;52.58;;;;;;;2.87;100.00;103234.16;5085277;28;20058;-78
2022/01/15 00:11:20;;;;;;;130.95;51.42;;;;;;;2.86;100.00;103232.44;5090630;28;20028;-78
2022/01/15 00:13:53;;;;;;;146.30;51.17;;;;;;;2.83;100.00;103241.09;5092099;28;20044;-78
2022/01/15 00:16:44;;;;;;;138.50;52.30;;;;;;;2.83;100.00;103243.69;5091006;28;20019;-81
2022/01/15 00:19:11;;;;;;;140.80;52.78;;;;;;;2.85;100.00;103239.34;5071454;28;20123;-81
2022/01/15 00:21:37;;;;;;;137.88;50.30;;;;;;;2.85;100.00;103241.97;5087146;28;20024;-81
2022/01/15 00:24:02;;;;;;;148.77;52.20;;;;;;;2.86;100.00;103243.69;5072050;28;20116;-80
2022/01/15 00:26:28;;;;;;;139.85;50.42;;;;;;;2.85;100.00;103231.56;5085755;28;20385;-79
2022/01/15 00:28:54;;;;;;;140.15;51.45;;;;;;;2.83;100.00;103222.91;5092366;28;20035;-79
2022/01/15 00:31:22;;;;;;;147.50;52.28;;;;;;;2.83;100.00;103226.38;5090926;28;20030;-79
2022/01/15 00:33:48;;;;;;;144.60;52.47;;;;;;;2.84;100.00;103229.84;5091917;28;20048;-79
2022/01/15 00:36:15;;;;;;;146.90;53.05;;;;;;;2.83;100.00;103217.72;5087955;28;20024;-78
2022/01/15 00:38:42;;;;;;;142.27;51.75;;;;;;;2.81;100.00;103217.72;5071539;28;20028;-79
2022/01/15 00:41:07;;;;;;;138.32;49.35;;;;;;;2.83;100.00;103220.31;5071206;28;20024;-80
2022/01/15 00:43:32;;;;;;;129.98;47.28;;;;;;;2.81;100.00;103209.91;5076970;28;20017;-79
2022/01/15 00:45:58;;;;;;;124.93;44.90;;;;;;;2.80;100.00;103209.88;5069968;28;20111;-79
2022/01/15 00:48:24;;;;;;;126.80;44.95;;;;;;;2.78;100.00;103199.50;5071495;28;20020;-79
2022/01/15 00:50:50;;;;;;;133.18;47.47;;;;;;;2.77;100.00;103202.09;5072069;28;20056;-79
2022/01/15 00:53:16;;;;;;;126.55;46.03;;;;;;;2.78;100.00;103209.91;5087098;28;20534;-79
2022/01/15 00:55:41;;;;;;;129.90;46.65;;;;;;;2.75;100.00;103203.84;5071732;28;20032;-79
2022/01/15 00:58:07;;;;;;;132.40;46.40;;;;;;;2.78;100.00;103196.03;5072176;28;20020;-78
2022/01/15 01:00:32;;;;;;;131.45;45.90;;;;;;;2.76;100.00;103198.63;5087436;28;20035;-79
2022/01/15 01:02:58;;;;;;;123.72;44.40;;;;;;;2.75;100.00;103189.09;5091840;28;20433;-79
2022/01/15 01:05:23;;;;;;;126.32;44.22;;;;;;;2.75;100.00;103190.84;5107133;28;20491;-80
2022/01/15 01:07:49;;;;;;;125.07;43.42;;;;;;;2.75;100.00;103188.25;5090824;28;20020;-79
2022/01/15 01:23:34;;;;;;;120.35;41.22;;;;;;;2.69;100.00;103176.13;5090480;28;20561;-80
2022/01/15 01:26:11;;;;;;;125.90;41.03;;;;;;;2.67;100.00;103174.41;5090964;28;20111;-79
2022/01/15 01:28:44;;;;;;;116.55;40.55;;;;;;;2.65;100.00;103176.16;5087983;28;20063;-79
2022/01/15 01:33:40;;;;;;;120.53;40.05;;;;;;;2.62;100.00;103170.97;5083901;28;20116;-80
2022/01/15 01:36:23;;;;;;;119.38;40.08;;;;;;;2.63;100.00;103175.31;5089906;28;20016;-79
2022/01/15 01:38:55;;;;;;;120.03;38.72;;;;;;;2.60;100.00;103168.38;5089691;28;20050;-80
2022/01/15 01:41:22;;;;;;;106.50;37.92;;;;;;;2.60;100.00;103175.31;5089887;28;20100;-79
2022/01/15 01:43:57;;;;;;;116.82;38.80;;;;;;;2.57;100.00;103164.94;5089614;28;20058;-80
2022/01/15 01:48:49;;;;;;;122.43;39.45;;;;;;;2.56;100.00;103165.81;5090121;28;20075;-78
2022/01/15 01:51:22;;;;;;;112.50;39.03;;;;;;;2.53;100.00;103160.63;5089379;28;20541;-78
2022/01/15 01:53:49;;;;;;;109.68;36.92;;;;;;;2.50;100.00;103157.16;5090626;28;20104;-78
2022/01/15 01:56:15;;;;;;;105.47;38.05;;;;;;;2.46;100.00;103147.66;5106118;28;20388;-78
2022/01/15 01:58:40;;;;;;;111.65;37.80;;;;;;;2.48;100.00;103158.91;5089655;28;20073;-79
2022/01/15 02:01:05;;;;;;;124.45;39.58;;;;;;;2.46;100.00;103155.44;5090943;28;20024;-78
2022/01/15 02:03:31;;;;;;;107.15;38.13;;;;;;;2.45;100.00;103158.91;5081708;28;20817;-80
2022/01/15 02:05:56;;;;;;;114.00;37.85;;;;;;;2.46;100.00;103154.59;5069145;28;20062;-79
2022/01/15 02:08:21;;;;;;;114.32;38.38;;;;;;;2.40;100.00;103150.28;5081074;28;20068;-79
2022/01/15 02:10:47;;;;;;;110.97;36.97;;;;;;;2.39;100.00;103143.31;5090122;28;20032;-80
2022/01/15 02:13:13;;;;;;;106.07;36.78;;;;;;;2.39;100.00;103142.47;5090031;28;20422;-79
2022/01/15 02:15:39;;;;;;;113.38;37.38;;;;;;;2.40;100.00;103147.69;5089697;28;20024;-80
2022/01/15 02:18:04;;;;;;;112.97;37.40;;;;;;;2.39;100.00;103143.31;5090204;28;20027;-80
2022/01/15 02:25:53;;;;;;;111.03;36.92;;;;;;;2.37;100.00;103139.88;5088629;28;20574;-80
2022/01/15 02:28:22;;;;;;;114.95;37.58;;;;;;;2.36;100.00;103134.69;5088312;28;20020;-80
2022/01/15 02:30:52;;;;;;;106.85;36.75;;;;;;;2.38;100.00;103135.53;5088369;28;20028;-80
2022/01/15 02:33:17;;;;;;;103.38;35.50;;;;;;;2.35;100.00;103120.81;5089154;28;20031;-80
2022/01/15 02:35:43;;;;;;;104.32;34.80;;;;;;;2.37;100.00;103129.47;5105021;28;20027;-80
2022/01/15 02:38:09;;;;;;;100.22;34.28;;;;;;;2.37;100.00;103123.41;5087735;28;20024;-79
2022/01/15 02:40:35;;;;;;;98.57;34.55;;;;;;;2.34;100.00;103113.91;5086597;28;20055;-79
2022/01/15 02:43:04;;;;;;;101.20;34.35;;;;;;;2.33;100.00;103112.19;5101870;28;20020;-79
2022/01/15 02:45:32;;;;;;;93.03;33.25;;;;;;;2.33;100.00;103095.72;5087842;28;20028;-80
2022/01/15 02:48:01;;;;;;;91.88;33.63;;;;;;;2.31;100.00;103093.13;5089003;28;20020;-79
2022/01/15 02:50:28;;;;;;;93.10;32.22;;;;;;;2.32;100.00;103097.47;5089041;28;20020;-80
2022/01/15 02:52:53;;;;;;;89.75;31.95;;;;;;;2.30;100.00;103090.53;5088734;28;20197;-79
2022/01/15 02:55:18;;;;;;;94.18;31.75;;;;;;;2.29;100.00;103078.44;5087600;28;20089;-79
2022/01/15 02:57:44;;;;;;;102.60;33.65;;;;;;;2.30;100.00;103086.22;5088140;28;20103;-79
2022/01/15 03:00:10;;;;;;;95.72;32.33;;;;;;;2.27;100.00;103081.03;5088775;28;20027;-80
2022/01/15 03:02:35;;;;;;;94.28;32.78;;;;;;;2.30;100.00;103075.81;5070152;28;20089;-79
2022/01/15 03:05:01;;;;;;;94.47;32.88;;;;;;;2.26;100.00;103076.72;5083657;28;20028;-80
2022/01/15 03:07:26;;;;;;;95.20;32.58;;;;;;;2.25;100.00;103066.31;5066763;28;20032;-78
2022/01/15 03:09:51;;;;;;;99.55;33.35;;;;;;;2.26;100.00;103068.06;5069092;28;20056;-79
2022/01/15 03:12:17;;;;;;;93.68;32.90;;;;;;;2.26;100.00;103073.25;5077963;28;20036;-78
2022/01/15 03:14:45;;;;;;;86.72;30.95;;;;;;;2.24;100.00;103075.84;5085856;28;20109;-78
2022/01/15 03:17:10;;;;;;;90.57;30.95;;;;;;;2.22;100.00;103072.41;5087386;28;20035;-79
2022/01/15 03:19:36;;;;;;;84.80;30.15;;;;;;;2.18;100.00;103068.09;5087102;28;20032;-78
2022/01/15 03:22:02;;;;;;;75.38;28.13;;;;;;;2.19;100.00;103072.41;5088565;28;20024;-78
2022/01/15 03:24:27;;;;;;;84.80;30.10;;;;;;;2.18;100.00;103068.09;5088536;28;20417;-78
2022/01/15 03:26:53;;;;;;;81.35;28.83;;;;;;;2.15;100.00;103065.50;5088420;28;20038;-79
2022/01/15 03:29:18;;;;;;;73.35;28.98;;;;;;;2.15;100.00;103065.50;5091960;28;20031;-79
2022/01/15 03:31:43;;;;;;;72.50;26.98;;;;;;;2.13;100.00;103062.03;5092412;28;20103;-78
2022/01/15 03:34:08;;;;;;;77.82;28.65;;;;;;;2.15;100.00;103068.09;5091685;28;20056;-78
2022/01/15 03:36:34;;;;;;;72.32;28.20;;;;;;;2.10;100.00;103054.28;5091653;28;20055;-79
2022/01/15 03:38:59;;;;;;;78.90;28.33;;;;;;;2.11;100.00;103056.00;5092309;28;20115;-78
2022/01/15 03:41:24;;;;;;;82.32;28.83;;;;;;;2.12;100.00;103058.59;5092211;28;20467;-78
2022/01/15 03:43:50;;;;;;;76.07;29.10;;;;;;;2.12;100.00;103052.53;5082108;28;20032;-79
2022/01/15 03:46:15;;;;;;;74.03;28.23;;;;;;;2.12;100.00;103044.75;5093178;28;20027;-78
2022/01/15 03:48:41;;;;;;;76.70;28.30;;;;;;;2.11;100.00;103038.69;5107023;28;20032;-79
2022/01/15 03:51:06;;;;;;;77.50;29.75;;;;;;;2.11;100.00;103038.69;5092586;28;20098;-80
2022/01/15 03:53:32;;;;;;;81.13;30.05;;;;;;;2.12;100.00;103034.34;5092733;28;20340;-81
2022/01/15 03:55:57;;;;;;;83.07;30.75;;;;;;;2.17;100.00;103032.59;5092102;28;20023;-81
2022/01/15 03:58:22;;;;;;;80.82;31.10;;;;;;;2.11;100.00;103022.25;5091779;28;20028;-81
2022/01/15 04:00:48;;;;;;;78.43;31.42;;;;;;;2.15;100.00;103023.94;5094146;28;20057;-81
2022/01/15 04:03:14;;;;;;;80.97;30.98;;;;;;;2.13;100.00;103030.88;5091163;28;20032;-81
2022/01/15 04:05:39;;;;;;;74.05;29.58;;;;;;;2.15;100.00;103034.34;5091739;28;20039;-81
2022/01/15 04:08:07;;;;;;;74.60;28.52;;;;;;;2.10;100.00;103034.38;5073904;28;20060;-81
2022/01/15 04:10:32;;;;;;;77.82;28.98;;;;;;;2.09;100.00;103034.38;5072083;28;20021;-81
2022/01/15 04:12:58;;;;;;;76.90;28.65;;;;;;;2.08;100.00;103032.63;5077991;28;20032;-81
2022/01/15 04:15:25;;;;;;;70.95;28.05;;;;;;;2.05;100.00;103027.47;5070897;28;20116;-81
2022/01/15 04:17:50;;;;;;;74.03;27.88;;;;;;;2.03;100.00;103021.41;5072365;28;20059;-81
2022/01/15 04:20:20;;;;;;;74.97;28.92;;;;;;;2.02;100.00;103023.16;5081292;28;20035;-81
2022/01/15 04:22:46;;;;;;;75.55;27.65;;;;;;;2.02;100.00;103022.28;5091908;28;20020;-81
2022/01/15 04:25:12;;;;;;;77.15;29.42;;;;;;;2.01;100.00;103017.97;5091653;28;20098;-80
2022/01/15 04:27:38;;;;;;;90.20;30.23;;;;;;;1.97;100.00;103017.06;5092563;28;20032;-80
2022/01/15 04:30:06;;;;;;;81.53;29.90;;;;;;;1.99;100.00;103009.28;5092391;28;20034;-80
2022/01/15 04:32:31;;;;;;;79.60;30.20;;;;;;;1.98;100.00;103015.34;5090991;28;20347;-80
2022/01/15 04:34:58;;;;;;;88.97;31.67;;;;;;;1.98;100.00;103010.16;5092112;28;20142;-80
2022/01/15 04:37:31;;;;;;;78.97;29.98;;;;;;;1.99;100.00;103012.75;5091157;28;20016;-80
2022/01/15 04:39:56;;;;;;;81.50;31.48;;;;;;;1.98;100.00;103005.81;5075762;28;20025;-80
2022/01/15 04:42:25;;;;;;;78.85;30.55;;;;;;;1.98;100.00;102999.78;5071290;28;20101;-80
2022/01/15 04:44:50;;;;;;;85.45;30.55;;;;;;;1.97;100.00;102995.44;5089812;28;20052;-81
2022/01/15 04:47:15;;;;;;;82.28;30.58;;;;;;;1.98;100.00;102995.44;5090654;28;20117;-82
2022/01/15 04:49:41;;;;;;;81.95;30.88;;;;;;;1.98;100.00;102994.56;5091767;28;20032;-81
2022/01/15 04:52:06;;;;;;;82.45;30.88;;;;;;;1.99;100.00;102991.09;5107149;28;20020;-81
2022/01/15 04:54:32;;;;;;;85.32;30.70;;;;;;;1.98;100.00;102986.78;5090226;28;20059;-81
2022/01/15 04:56:57;;;;;;;82.30;29.63;;;;;;;1.99;100.00;102985.91;5091409;28;20129;-81
2022/01/15 04:59:23;;;;;;;91.82;32.25;;;;;;;1.96;100.00;102979.00;5090415;28;20035;-81
2022/01/15 05:01:50;;;;;;;89.20;30.70;;;;;;;1.97;100.00;102980.72;5091102;28;20517;-81
2022/01/15 05:04:16;;;;;;;82.63;29.25;;;;;;;1.96;100.00;102972.97;5090653;28;20039;-83
2022/01/15 05:06:41;;;;;;;82.20;29.90;;;;;;;1.96;100.00;102971.22;5087538;28;20028;-81
2022/01/15 05:09:07;;;;;;;83.55;31.25;;;;;;;1.97;100.00;102977.28;5090596;28;20058;-81
2022/01/15 05:11:48;;;;;;;90.00;31.35;;;;;;;1.98;100.00;102973.81;5090223;28;20028;-80
2022/01/15 05:14:16;;;;;;;81.00;30.30;;;;;;;1.96;100.00;102971.22;5088568;28;20044;-81
2022/01/15 05:16:42;;;;;;;83.45;31.50;;;;;;;1.98;100.00;102969.47;5090205;28;20032;-81
2022/01/15 05:19:08;;;;;;;85.40;32.22;;;;;;;1.97;100.00;102972.09;5090145;28;20043;-80
2022/01/15 05:21:34;;;;;;;79.47;30.13;;;;;;;1.96;100.00;102960.84;5090501;28;20024;-81
2022/01/15 05:23:59;;;;;;;84.68;32.83;;;;;;;1.96;100.00;102959.97;5090966;28;20655;-80
2022/01/15 05:26:24;;;;;;;89.80;33.70;;;;;;;1.95;100.00;102958.25;5091021;28;20093;-80
2022/01/15 05:28:50;;;;;;;84.78;32.60;;;;;;;1.97;100.00;102951.31;5105868;28;20035;-80
2022/01/15 05:31:15;;;;;;;93.78;33.80;;;;;;;1.95;100.00;102940.09;5091353;28;20027;-80
2022/01/15 05:33:43;;;;;;;87.10;34.20;;;;;;;1.98;100.00;102945.25;5089824;28;20138;-81
2022/01/15 05:36:09;;;;;;;93.15;35.42;;;;;;;1.97;100.00;102944.41;5091975;28;20065;-81
2022/01/15 05:38:35;;;;;;;88.80;35.85;;;;;;;1.98;100.00;102927.09;5090794;28;20410;-80
2022/01/15 05:41:00;;;;;;;93.30;35.67;;;;;;;1.96;100.00;102926.22;5090899;28;20101;-83
2022/01/15 05:43:25;;;;;;;95.57;36.33;;;;;;;1.96;100.00;102921.03;5084669;28;20089;-81
2022/01/15 05:45:51;;;;;;;93.53;35.53;;;;;;;1.95;100.00;102922.78;5087638;28;20108;-81
2022/01/15 05:48:16;;;;;;;92.13;35.97;;;;;;;1.97;100.00;102925.34;5090293;28;20024;-81
2022/01/15 05:50:42;;;;;;;96.72;37.58;;;;;;;1.95;100.00;102916.72;5090148;28;20155;-82
2022/01/15 05:53:07;;;;;;;85.47;36.72;;;;;;;1.95;100.00;102916.72;5090104;28;20020;-81
2022/01/15 05:55:33;;;;;;;93.75;36.92;;;;;;;1.95;100.00;102922.78;5090020;28;20468;-81
2022/01/15 05:57:58;;;;;;;88.43;37.97;;;;;;;1.96;100.00;102923.63;5089975;28;20024;-81
2022/01/15 06:00:24;;;;;;;90.95;35.25;;;;;;;1.98;100.00;102916.69;5106048;28;20039;-81
2022/01/15 06:02:49;;;;;;;83.45;34.13;;;;;;;1.98;100.00;102911.50;5088214;28;20031;-81
2022/01/15 06:05:15;;;;;;;83.53;34.53;;;;;;;1.94;100.00;102908.06;5090662;28;20504;-81
2022/01/15 06:07:40;;;;;;;78.85;34.25;;;;;;;1.96;100.00;102902.88;5081575;28;20435;-81
2022/01/15 06:10:06;;;;;;;83.65;33.85;;;;;;;1.95;100.00;102903.75;5068933;28;20027;-81
2022/01/15 06:12:41;;;;;;;82.35;34.90;;;;;;;1.96;100.00;102900.28;5070307;28;20028;-81
2022/01/15 06:15:07;;;;;;;82.93;33.75;;;;;;;1.93;100.00;102897.69;5089160;28;20543;-81
2022/01/15 06:17:32;;;;;;;86.38;34.92;;;;;;;1.94;100.00;102899.41;5088529;28;20016;-80
2022/01/15 06:19:58;;;;;;;73.18;31.17;;;;;;;1.92;100.00;102895.97;5080366;28;20046;-81
2022/01/15 06:22:23;;;;;;;77.20;31.40;;;;;;;1.94;100.00;102902.88;5069156;28;20032;-81
2022/01/15 06:24:48;;;;;;;85.07;31.52;;;;;;;1.92;100.00;102895.97;5068704;28;20081;-81
2022/01/15 06:27:16;;;;;;;74.05;30.02;;;;;;;1.88;100.00;102890.81;5068009;28;20070;-80
2022/01/15 06:29:42;;;;;;;77.40;31.42;;;;;;;1.91;100.00;102894.25;5069150;28;20093;-81
2022/01/15 06:32:07;;;;;;;77.50;32.10;;;;;;;1.93;100.00;102897.69;5067492;28;20457;-81
2022/01/15 06:34:33;;;;;;;86.15;32.47;;;;;;;1.90;100.00;102888.19;5070351;28;20040;-82
2022/01/15 06:36:58;;;;;;;75.72;31.30;;;;;;;1.91;100.00;102895.09;5085611;28;20027;-81
2022/01/15 06:39:23;;;;;;;81.70;32.25;;;;;;;1.91;100.00;102894.25;5088674;28;20039;-81
2022/01/15 06:41:49;;;;;;;81.53;32.60;;;;;;;1.91;100.00;102889.06;5088119;28;20258;-81
2022/01/15 06:44:14;;;;;;;78.95;31.25;;;;;;;1.88;100.00;102889.94;5088652;28;20016;-81
2022/01/15 06:46:40;;;;;;;75.10;30.85;;;;;;;1.86;100.00;102887.34;5088042;28;20177;-81
2022/01/15 06:49:05;;;;;;;74.07;29.27;;;;;;;1.88;100.00;102889.94;5089696;28;20024;-81
2022/01/15 06:51:30;;;;;;;82.15;31.23;;;;;;;1.87;100.00;102883.88;5087193;28;20435;-81
2022/01/15 06:53:56;;;;;;;88.80;33.78;;;;;;;1.87;100.00;102883.03;5083382;28;20028;-81
2022/01/15 06:56:21;;;;;;;83.22;31.88;;;;;;;1.89;100.00;102882.13;5087366;28;20107;-82
2022/01/15 06:58:47;;;;;;;84.18;30.65;;;;;;;1.87;100.00;102891.66;5087431;28;20151;-81
2022/01/15 07:01:12;;;;;;;83.18;31.02;;;;;;;1.87;100.00;102883.88;5088920;28;20107;-81
2022/01/15 07:03:38;;;;;;;73.93;30.50;;;;;;;1.84;100.00;102883.91;5087851;28;20031;-81
2022/01/15 07:06:03;;;;;;;76.47;28.80;;;;;;;1.88;100.00;102890.81;5088528;28;20483;-80
2022/01/15 07:08:29;;;;;;;77.47;28.58;;;;;;;1.84;100.00;102889.09;5087141;28;20016;-81
2022/01/15 07:10:54;;;;;;;74.13;29.48;;;;;;;1.87;100.00;102888.22;5086746;28;20221;-80
2022/01/15 07:13:20;;;;;;;78.22;29.95;;;;;;;1.84;100.00;102883.91;5088039;28;20361;-80
2022/01/15 07:15:47;;;;;;;77.47;30.85;;;;;;;1.82;100.00;102887.38;5089005;28;20039;-81
2022/01/15 07:18:12;;;;;;;69.47;29.02;;;;;;;1.83;100.00;102892.56;5104423;28;20476;-81
2022/01/15 07:20:38;;;;;;;80.30;27.55;;;;;;;1.81;100.00;102883.91;5087101;28;20076;-84
2022/01/15 07:23:03;;;;;;;67.25;28.08;;;;;;;1.81;100.00;102888.25;5086499;28;20068;-83
2022/01/15 07:25:29;;;;;;;71.28;26.95;;;;;;;1.81;100.00;102888.25;5103410;28;20055;-83
2022/01/15 07:27:54;;;;;;;60.95;26.52;;;;;;;1.78;100.00;102889.13;5088945;28;20028;-83
2022/01/15 07:30:20;;;;;;;61.92;25.90;;;;;;;1.78;100.00;102883.94;5088084;28;20027;-83
2022/01/15 07:32:46;;;;;;;77.88;24.25;;;;;;;1.77;100.00;102881.34;5088730;28;20501;-83
2022/01/15 07:35:12;;;;;;;76.90;24.05;;;;;;;1.75;100.00;102883.94;5088784;28;20040;-83
2022/01/15 07:37:38;;;;;;;59.92;23.23;;;;;;;1.71;100.00;102879.66;5089509;28;20035;-83
2022/01/15 07:40:08;;;;;;;59.47;22.63;;;;;;;1.75;100.00;102883.94;5086799;28;20033;-83
2022/01/15 07:42:36;;;;;;;64.18;22.83;;;;;;;1.69;100.00;102881.38;5080769;28;20487;-83
2022/01/15 07:45:09;;;;;;;57.88;22.40;;;;;;;1.71;100.00;102890.03;5095766;28;20035;-83
2022/01/15 07:47:34;;;;;;;72.05;23.13;;;;;;;1.68;100.00;102892.63;5078573;28;20100;-83
2022/01/15 07:50:00;;;;;;;49.88;22.48;;;;;;;1.66;100.00;102894.38;5069690;28;20048;-83
2022/01/15 07:52:25;;;;;;;59.63;24.33;;;;;;;1.64;100.00;102896.13;5067916;28;20032;-83
2022/01/15 07:54:51;;;;;;;45.50;22.90;;;;;;;1.66;100.00;102903.91;5068359;28;20465;-83
2022/01/15 07:57:17;;;;;;;55.60;24.02;;;;;;;1.64;100.00;102896.13;5094734;28;20020;-83
2022/01/15 07:59:42;;;;;;;58.00;24.75;;;;;;;1.63;100.00;102904.78;5074705;28;20389;-83
2022/01/15 08:02:07;;;;;;;50.85;25.33;;;;;;;1.61;100.00;102896.13;5066808;28;20029;-83
2022/01/15 08:04:33;;;;;;;66.43;24.52;;;;;;;1.64;100.00;102895.25;5067020;28;20170;-84
2022/01/15 08:06:59;;;;;;;83.32;23.88;;;;;;;1.61;100.00;102906.50;5078118;28;20433;-83
2022/01/15 08:09:24;;;;;;;53.83;24.30;;;;;;;1.60;100.00;102903.88;5087698;28;20039;-83
2022/01/15 08:11:49;;;;;;;49.10;23.65;;;;;;;1.59;100.00;102897.84;5087442;28;20020;-83
2022/01/15 08:14:15;;;;;;;45.78;23.33;;;;;;;1.57;100.00;102894.38;5078481;28;20079;-83
2022/01/15 08:16:40;;;;;;;58.53;22.77;;;;;;;1.55;100.00;102890.94;5089980;28;20032;-83
2022/01/15 08:19:06;;;;;;;45.30;22.45;;;;;;;1.52;100.00;102890.94;5092206;28;20028;-83
2022/01/15 08:21:31;;;;;;;50.15;22.77;;;;;;;1.51;100.00;102890.09;5090352;28;20702;-80
2022/01/15 08:23:56;;;;;;;46.97;23.15;;;;;;;1.52;100.00;102886.63;5089759;28;20028;-80
2022/01/15 08:26:22;;;;;;;55.58;22.77;;;;;;;1.50;100.00;102887.50;5091430;28;20103;-81
2022/01/15 08:28:47;;;;;;;48.08;24.10;;;;;;;1.50;100.00;102887.50;5091608;28;20032;-81
2022/01/15 08:31:13;;;;;;;97.95;26.98;;;;;;;1.45;100.00;102884.06;5090385;28;20020;-81
2022/01/15 08:33:38;;;;;;;63.65;27.98;;;;;;;1.44;100.00;102887.53;5091662;28;20048;-81
2022/01/15 08:36:04;;;;;;;61.15;26.27;;;;;;;1.41;100.00;102871.97;5092290;28;20020;-80
2022/01/15 08:38:29;;;;;;;57.05;26.35;;;;;;;1.40;100.00;102875.44;5091387;28;20024;-81
2022/01/15 08:40:55;;;;;;;75.90;27.55;;;;;;;1.36;100.00;102877.19;5108184;28;20023;-80
2022/01/15 08:43:20;;;;;;;60.85;27.50;;;;;;;1.36;100.00;102879.78;5088647;28;20032;-81
2022/01/15 08:45:47;;;;;;;60.22;27.08;;;;;;;1.39;100.00;102884.94;5091739;28;20039;-80
2022/01/15 08:48:14;;;;;;;55.00;25.45;;;;;;;1.38;100.00;102887.56;5090596;28;20035;-80
2022/01/15 08:50:40;;;;;;;59.47;25.85;;;;;;;1.34;100.00;102891.88;5107229;28;20059;-80
2022/01/15 08:53:06;;;;;;;58.88;25.45;;;;;;;1.31;100.00;102883.25;5090021;28;20448;-80
2022/01/15 08:55:33;;;;;;;57.75;26.20;;;;;;;1.28;100.00;102885.84;5091645;28;20062;-83
2022/01/15 08:57:59;;;;;;;60.30;26.50;;;;;;;1.27;100.00;102877.22;5090142;28;20293;-83
2022/01/15 09:00:27;;;;;;;57.30;27.13;;;;;;;1.28;100.00;102884.13;5091892;28;20028;-83
2022/01/15 09:02:54;;;;;;;55.08;26.05;;;;;;;1.28;100.00;102883.25;5090206;28;20695;-83
2022/01/15 09:05:20;;;;;;;69.55;28.25;;;;;;;1.23;100.00;102878.97;5089733;28;20044;-83
2022/01/15 09:07:46;;;;;;;59.45;25.60;;;;;;;1.23;100.00;102878.97;5075314;28;20580;-82
2022/01/15 09:10:14;;;;;;;59.47;28.88;;;;;;;1.22;100.00;102874.63;5069989;28;20025;-83
2022/01/15 09:12:40;;;;;;;65.63;28.35;;;;;;;1.20;100.00;102863.41;5069159;28;20028;-81
2022/01/15 09:15:06;;;;;;;68.20;29.75;;;;;;;1.21;100.00;102870.31;5089714;28;20027;-81
2022/01/15 09:17:32;;;;;;;73.38;28.65;;;;;;;1.22;100.00;102872.06;5090401;28;20038;-80
2022/01/15 09:19:57;;;;;;;73.45;30.38;;;;;;;1.23;100.00;102862.53;5090406;28;20454;-80
2022/01/15 09:22:23;;;;;;;64.55;29.83;;;;;;;1.22;100.00;102864.28;5089156;28;20067;-83
2022/01/15 09:24:48;;;;;;;66.93;30.15;;;;;;;1.21;100.00;102865.13;5089617;28;20030;-81
2022/01/15 09:30:15;;;;;;;73.63;32.45;;;;;;;1.23;100.00;102862.53;5091143;28;20039;-80
2022/01/15 09:32:47;;;;;;;69.72;32.70;;;;;;;1.24;100.00;102853.88;5088764;28;20054;-82
2022/01/15 09:35:14;;;;;;;73.57;32.23;;;;;;;1.23;100.00;102847.84;5088326;28;20051;-82
2022/01/15 09:37:40;;;;;;;72.60;33.88;;;;;;;1.24;100.00;102843.53;5090331;28;20024;-82
2022/01/15 09:40:07;;;;;;;72.57;32.45;;;;;;;1.27;100.00;102853.03;5106108;28;20047;-83
2022/01/15 09:42:33;;;;;;;75.20;33.00;;;;;;;1.25;100.00;102851.28;5090330;28;20028;-80
2022/01/15 09:44:59;;;;;;;77.18;34.08;;;;;;;1.23;100.00;102837.47;5090797;28;20020;-80
2022/01/15 09:47:26;;;;;;;79.38;33.65;;;;;;;1.23;100.00;102842.66;5105159;28;20027;-80
2022/01/15 09:49:53;;;;;;;80.53;34.22;;;;;;;1.24;100.00;102841.78;5085521;28;20044;-83
2022/01/15 09:52:19;;;;;;;80.13;35.70;;;;;;;1.28;100.00;102849.56;5086005;28;20032;-82
2022/01/15 09:54:45;;;;;;;79.97;34.10;;;;;;;1.27;100.00;102853.03;5070240;28;20190;-82
2022/01/15 09:57:10;;;;;;;84.88;35.30;;;;;;;1.25;100.00;102846.09;5070990;28;20558;-82
2022/01/15 09:59:36;;;;;;;86.53;35.22;;;;;;;1.25;100.00;102851.28;5069062;28;20477;-82
2022/01/15 10:02:04;;;;;;;76.82;33.42;;;;;;;1.28;100.00;102844.38;5085797;28;20029;-82
2022/01/15 10:04:32;;;;;;;85.57;35.47;;;;;;;1.24;100.00;102846.97;5070102;28;20021;-82
2022/01/15 10:07:19;;;;;;;84.22;35.55;;;;;;;1.31;100.00;102850.41;5079391;28;20020;-82
2022/01/15 10:09:46;;;;;;;82.15;34.58;;;;;;;1.33;100.00;102853.00;5090238;28;20028;-83
2022/01/15 10:12:24;;;;;;;77.90;33.55;;;;;;;1.30;100.00;102842.63;5089541;28;20039;-82
2022/01/15 10:14:50;;;;;;;86.32;35.65;;;;;;;1.33;100.00;102851.25;5071867;28;20519;-83
2022/01/15 10:17:20;;;;;;;91.30;35.45;;;;;;;1.36;100.00;102858.16;5069478;28;20025;-82
2022/01/15 10:19:46;;;;;;;90.60;36.97;;;;;;;1.39;100.00;102858.16;5086156;28;20024;-82
2022/01/15 10:22:13;;;;;;;97.80;37.83;;;;;;;1.40;100.00;102852.09;5082533;28;20043;-82
2022/01/15 10:24:41;;;;;;;96.75;38.53;;;;;;;1.38;100.00;102846.06;5090357;28;20046;-83
2022/01/15 10:27:18;;;;;;;93.75;38.13;;;;;;;1.41;100.00;102846.91;5106060;28;20429;-82
2022/01/15 10:29:53;;;;;;;97.20;38.58;;;;;;;1.44;100.00;102846.03;5089148;28;20508;-82
2022/01/15 10:32:19;;;;;;;104.55;37.97;;;;;;;1.41;100.00;102841.72;5105170;28;20031;-82
2022/01/15 10:34:45;;;;;;;105.40;38.20;;;;;;;1.39;100.00;102835.69;5087812;28;20044;-82
2022/01/15 10:37:17;;;;;;;95.13;37.97;;;;;;;1.41;100.00;102833.94;5087503;28;20034;-81
2022/01/15 10:40:06;;;;;;;107.22;38.25;;;;;;;1.46;100.00;102833.91;5089201;28;20478;-82
2022/01/15 10:42:33;;;;;;;111.90;40.58;;;;;;;1.44;100.00;102827.88;5087699;28;20047;-81
2022/01/15 10:45:00;;;;;;;111.35;39.38;;;;;;;1.48;100.00;102827.00;5087400;28;20020;-81
2022/01/15 10:47:28;;;;;;;104.72;39.45;;;;;;;1.49;100.00;102828.72;5088918;28;20024;-81
2022/01/15 10:50:02;;;;;;;105.22;39.65;;;;;;;1.51;100.00;102838.22;5087880;28;20036;-81
2022/01/15 10:52:28;;;;;;;100.85;37.17;;;;;;;1.53;100.00;102839.06;5087996;28;20073;-81
2022/01/15 10:55:07;;;;;;;96.38;37.92;;;;;;;1.55;100.00;102839.91;5089277;28;20024;-81
2022/01/15 10:57:34;;;;;;;98.10;39.03;;;;;;;1.54;100.00;102829.56;5087032;28;20350;-81
2022/01/15 11:00:06;;;;;;;98.18;37.97;;;;;;;1.55;100.00;102828.69;5089343;28;20046;-81
2022/01/15 11:02:31;;;;;;;105.72;38.55;;;;;;;1.55;100.00;102820.91;5087022;28;20360;-81
2022/01/15 11:04:57;;;;;;;104.03;39.28;;;;;;;1.52;100.00;102820.91;5087099;28;20020;-82
2022/01/15 11:07:23;;;;;;;92.03;37.33;;;;;;;1.55;100.00;102818.31;5075363;28;20020;-81
2022/01/15 11:09:51;;;;;;;83.22;34.75;;;;;;;1.53;100.00;102813.13;5067780;28;20507;-81
2022/01/15 11:12:18;;;;;;;87.07;35.00;;;;;;;1.58;100.00;102807.91;5071404;28;20024;-81
2022/01/15 11:14:43;;;;;;;100.03;37.17;;;;;;;1.61;100.00;102813.13;5085876;28;20024;-81
2022/01/15 11:17:09;;;;;;;102.43;38.50;;;;;;;1.59;100.00;102804.44;5086156;28;20029;-81
2022/01/15 11:19:36;;;;;;;100.15;38.72;;;;;;;1.65;100.00;102808.75;5067118;28;20028;-81
2022/01/15 11:22:03;;;;;;;103.45;38.55;;;;;;;1.63;100.00;102806.19;5069789;28;20424;-81
2022/01/15 11:24:29;;;;;;;91.57;36.75;;;;;;;1.63;100.00;102802.72;5097124;28;20053;-81
2022/01/15 11:26:57;;;;;;;85.53;35.60;;;;;;;1.63;100.00;102806.19;5086267;28;20027;-81
2022/01/15 11:29:25;;;;;;;84.82;34.92;;;;;;;1.61;100.00;102807.94;5104641;28;20031;-81
2022/01/15 11:31:53;;;;;;;84.05;35.20;;;;;;;1.63;100.00;102803.59;5104995;28;20197;-81